Time;durP1;ratioP1;P1;durP2;ratioP2;P2;SDS_P1;SDS_P2;PMS_P1;PMS_P2;Temp;Humidity;BMP_temperature;BMP_pressure;BME280_temperature;BME280_humidity;BME280_pressure;Samples;Min_cycle;Max_cycle;Signal;HPM_P1;HPM_P2
2021/09/06 00:00:09;;;;;;;16.63;12.30;;;;;;;17.46;73.79;100984.41;5021629;28;20045;-82
2021/09/06 00:02:36;;;;;;;17.38;11.18;;;;;;;17.42;73.93;100987.38;5019566;28;20045;-82
2021/09/06 00:05:06;;;;;;;16.20;11.43;;;;;;;17.39;73.81;100982.22;5009421;28;20056;-81
2021/09/06 00:07:34;;;;;;;;;;;;;;;17.37;74.08;100986.81;5025535;28;20060;-80
2021/09/06 00:10:19;;;;;;;16.83;11.18;;;;;;;17.35;73.99;100981.56;5024395;28;19920;-80
2021/09/06 00:12:47;;;;;;;16.38;11.55;;;;;;;17.33;73.99;100978.13;5012069;28;20042;-80
2021/09/06 00:15:14;;;;;;;16.88;11.95;;;;;;;17.31;74.41;100979.22;5022641;28;20052;-80
2021/09/06 00:17:41;;;;;;;17.92;11.02;;;;;;;17.25;74.45;100976.94;5030366;28;20049;-81
2021/09/06 00:20:09;;;;;;;15.07;11.02;;;;;;;17.25;74.33;100979.59;5021053;28;20110;-81
2021/09/06 00:22:37;;;;;;;18.25;11.70;;;;;;;17.19;74.32;100983.53;5044368;28;20060;-81
2021/09/06 00:25:05;;;;;;;15.38;12.05;;;;;;;17.16;75.00;100973.88;5055391;28;20118;-80
2021/09/06 00:27:32;;;;;;;15.23;11.23;;;;;;;17.15;75.05;100976.69;5037819;28;20097;-81
2021/09/06 00:29:59;;;;;;;14.18;11.00;;;;;;;17.11;75.11;100972.47;5038282;28;20105;-81
2021/09/06 00:32:28;;;;;;;14.68;11.48;;;;;;;17.05;75.19;100979.06;5035226;28;20093;-81
2021/09/06 00:34:54;;;;;;;17.38;11.90;;;;;;;17.00;75.59;100978.50;5029135;28;20050;-81
2021/09/06 00:37:21;;;;;;;15.52;11.68;;;;;;;16.96;75.80;100978.81;5036715;28;20046;-81
2021/09/06 00:39:48;;;;;;;15.30;11.63;;;;;;;16.94;75.65;100976.25;5019812;28;20129;-81
2021/09/06 00:42:17;;;;;;;18.73;12.23;;;;;;;16.92;75.32;100979.97;5022507;28;20057;-79
2021/09/06 00:44:44;;;;;;;17.85;12.20;;;;;;;16.88;75.88;100981.97;5027046;28;20042;-80
2021/09/06 00:47:10;;;;;;;16.15;11.30;;;;;;;16.88;75.66;100979.28;5029977;28;20045;-79
2021/09/06 00:49:37;;;;;;;14.55;11.40;;;;;;;16.88;75.74;100989.13;5008403;28;20050;-79
2021/09/06 00:52:04;;;;;;;17.33;12.18;;;;;;;16.84;75.86;100981.31;5021738;28;20474;-80
2021/09/06 00:54:33;;;;;;;16.52;11.98;;;;;;;16.84;75.83;100991.16;5016092;28;20038;-81
2021/09/06 00:57:02;;;;;;;16.03;11.67;;;;;;;16.82;75.62;100993.06;5016920;28;20104;-80
2021/09/06 00:59:29;;;;;;;16.50;11.77;;;;;;;16.78;75.44;100992.41;5014869;28;20527;-81
2021/09/06 01:01:57;;;;;;;17.10;12.30;;;;;;;16.73;75.30;100986.47;4999027;28;20060;-81
2021/09/06 01:04:24;;;;;;;16.40;11.48;;;;;;;16.71;75.31;100995.56;5011986;28;20045;-81
2021/09/06 01:06:51;;;;;;;16.13;11.73;;;;;;;16.69;74.94;100995.66;5014987;28;20042;-81
2021/09/06 01:09:17;;;;;;;18.20;12.05;;;;;;;16.67;75.09;100994.91;5011439;28;20061;-81
2021/09/06 01:11:44;;;;;;;16.27;10.88;;;;;;;16.67;75.09;100991.38;5010399;28;20075;-81
2021/09/06 01:14:11;;;;;;;16.35;12.00;;;;;;;16.66;74.88;100990.50;5011179;28;20049;-81
2021/09/06 01:16:37;;;;;;;15.38;11.55;;;;;;;16.68;74.77;100985.94;5019754;28;20100;-81
2021/09/06 01:19:04;;;;;;;19.00;12.52;;;;;;;16.71;74.75;100996.41;5037591;28;20037;-80
2021/09/06 01:21:33;;;;;;;15.43;11.20;;;;;;;16.68;74.96;100991.28;5026332;28;20061;-81
2021/09/06 01:24:00;;;;;;;18.13;11.77;;;;;;;16.64;75.01;100994.22;5019081;28;20132;-81
2021/09/06 01:26:27;;;;;;;16.58;11.93;;;;;;;16.57;74.71;100990.19;4997401;28;20060;-81
2021/09/06 01:28:54;;;;;;;16.02;12.07;;;;;;;16.56;75.09;100996.47;5011141;28;20408;-82
2021/09/06 01:31:30;;;;;;;14.98;11.27;;;;;;;16.52;74.96;100997.66;5012549;28;20042;-81
2021/09/06 01:33:57;;;;;;;18.85;12.00;;;;;;;16.51;75.13;100999.47;5012598;28;20072;-81
2021/09/06 01:36:23;;;;;;;16.83;11.93;;;;;;;16.46;74.96;100991.72;5008027;28;20038;-81
2021/09/06 01:38:50;;;;;;;17.40;12.68;;;;;;;16.44;75.34;101001.63;5020492;28;20112;-81
2021/09/06 01:41:17;;;;;;;19.05;12.35;;;;;;;16.45;75.05;100994.47;5022824;28;20045;-81
2021/09/06 01:43:44;;;;;;;18.25;12.65;;;;;;;16.44;75.33;100998.09;5017321;28;20045;-81
2021/09/06 01:46:10;;;;;;;16.08;11.32;;;;;;;16.43;75.25;100988.38;4994569;28;20084;-81
2021/09/06 01:48:37;;;;;;;17.08;12.25;;;;;;;16.44;74.84;100984.75;5015882;28;20089;-81
2021/09/06 01:51:04;;;;;;;16.83;12.18;;;;;;;16.43;75.21;100991.03;5011769;28;20046;-81
2021/09/06 01:53:31;;;;;;;16.75;11.52;;;;;;;16.45;75.33;100981.97;5018491;28;20750;-81
2021/09/06 01:55:57;;;;;;;18.67;12.05;;;;;;;16.47;75.41;100980.06;5018908;28;20597;-81
2021/09/06 01:58:32;;;;;;;15.15;11.65;;;;;;;16.49;75.27;100979.97;5014665;28;20050;-81
2021/09/06 02:00:59;;;;;;;18.13;12.80;;;;;;;16.49;74.70;100994.19;5017044;28;20053;-81
2021/09/06 02:03:26;;;;;;;18.27;12.45;;;;;;;16.45;74.67;100984.66;5004380;28;20448;-81
2021/09/06 02:05:53;;;;;;;15.68;12.02;;;;;;;16.43;74.72;100996.38;5016200;28;20445;-81
2021/09/06 02:08:19;;;;;;;17.13;12.32;;;;;;;16.37;74.97;100988.75;5007087;28;20115;-81
2021/09/06 02:10:46;;;;;;;16.80;12.25;;;;;;;16.35;75.46;100988.84;5015315;28;20140;-81
2021/09/06 02:13:14;;;;;;;18.85;13.13;;;;;;;16.29;75.57;100994.56;5007897;28;20053;-81
2021/09/06 02:15:40;;;;;;;18.17;12.73;;;;;;;16.22;75.77;100995.88;5015324;28;21291;-81
2021/09/06 02:18:07;;;;;;;21.23;13.40;;;;;;;16.21;76.18;100996.84;4998796;28;20045;-81
2021/09/06 02:20:33;;;;;;;18.13;13.63;;;;;;;16.16;76.18;100993.59;5016207;28;20052;-81
2021/09/06 02:23:01;;;;;;;19.75;13.10;;;;;;;16.07;76.40;100983.44;4982687;28;20050;-81
2021/09/06 02:25:27;;;;;;;16.92;13.45;;;;;;;16.09;76.72;100993.09;5014662;28;20125;-81
2021/09/06 02:27:54;;;;;;;20.50;14.23;;;;;;;16.03;76.49;100992.63;5014846;28;20482;-81
2021/09/06 02:30:23;;;;;;;19.48;13.65;;;;;;;15.98;77.09;101003.56;5015795;28;20057;-81
2021/09/06 02:32:50;;;;;;;20.52;14.32;;;;;;;15.98;77.16;100994.69;5018201;28;20046;-81
2021/09/06 02:35:18;;;;;;;21.77;14.27;;;;;;;15.92;77.73;100979.03;4999865;28;20124;-81
2021/09/06 02:37:44;;;;;;;19.40;13.75;;;;;;;15.95;77.64;100995.72;5015873;28;20046;-81
2021/09/06 02:40:15;;;;;;;20.52;13.77;;;;;;;15.94;77.30;100988.66;5019880;28;20077;-81
2021/09/06 02:42:43;;;;;;;19.67;13.95;;;;;;;15.91;77.90;100988.00;5018195;28;20722;-81
2021/09/06 02:45:11;;;;;;;20.05;14.07;;;;;;;15.89;77.90;100989.91;5019027;28;20507;-81
2021/09/06 02:47:38;;;;;;;19.95;14.50;;;;;;;15.85;77.92;100993.72;5023454;28;20046;-81
2021/09/06 02:50:05;;;;;;;20.38;13.65;;;;;;;15.81;78.31;100998.38;5020978;28;20038;-80
2021/09/06 02:52:33;;;;;;;22.60;15.20;;;;;;;15.77;78.63;100996.81;5023749;28;20070;-80
2021/09/06 02:55:01;;;;;;;20.67;15.20;;;;;;;15.74;78.88;100997.84;5021035;28;20045;-81
2021/09/06 02:57:28;;;;;;;20.55;15.38;;;;;;;15.76;79.02;100997.78;5010833;28;20049;-80
2021/09/06 02:59:55;;;;;;;20.63;15.23;;;;;;;15.76;79.27;100995.09;5033367;28;20064;-79
2021/09/06 03:02:22;;;;;;;21.23;15.45;;;;;;;15.75;79.41;100999.56;5009065;28;20484;-80
2021/09/06 03:04:49;;;;;;;20.20;14.48;;;;;;;15.71;79.16;100994.53;5025050;28;20050;-79
2021/09/06 03:07:16;;;;;;;21.50;15.13;;;;;;;15.68;79.29;100992.91;5009074;28;20084;-80
2021/09/06 03:09:42;;;;;;;21.05;14.50;;;;;;;15.68;79.44;100990.22;5013655;28;20109;-79
2021/09/06 03:12:09;;;;;;;21.33;14.93;;;;;;;15.67;79.46;100996.50;5028416;28;20140;-81
2021/09/06 03:14:36;;;;;;;20.33;14.18;;;;;;;15.64;79.55;101001.16;5006428;28;20046;-81
2021/09/06 03:17:03;;;;;;;21.10;15.40;;;;;;;15.60;79.57;100995.13;4999197;28;20089;-81
2021/09/06 03:19:29;;;;;;;25.05;15.43;;;;;;;15.56;79.11;101004.28;4999132;28;20056;-82
2021/09/06 03:21:56;;;;;;;22.77;16.05;;;;;;;15.49;79.61;100999.34;5023766;28;20060;-81
2021/09/06 03:24:23;;;;;;;19.83;15.15;;;;;;;15.45;80.35;101001.31;4999961;28;20053;-81
2021/09/06 03:26:49;;;;;;;23.45;16.58;;;;;;;15.42;80.03;100993.53;5011885;28;20046;-81
2021/09/06 03:29:17;;;;;;;21.50;16.00;;;;;;;15.40;80.25;100985.59;5018675;28;20050;-81
2021/09/06 03:31:45;;;;;;;24.30;15.55;;;;;;;15.40;80.21;100992.75;5018783;28;20058;-81
2021/09/06 03:34:11;;;;;;;21.85;15.70;;;;;;;15.37;80.37;100991.13;5017024;28;20121;-82
2021/09/06 03:36:38;;;;;;;23.38;15.25;;;;;;;15.40;79.91;100984.75;5010186;28;20109;-81
2021/09/06 03:39:05;;;;;;;21.98;15.82;;;;;;;15.41;80.21;100983.78;5018489;28;20049;-81
2021/09/06 03:41:33;;;;;;;21.45;16.00;;;;;;;15.40;80.06;100985.59;5004562;28;20065;-81
2021/09/06 03:44:00;;;;;;;25.35;16.88;;;;;;;15.40;79.95;100987.41;5009772;28;20810;-81
2021/09/06 03:46:27;;;;;;;22.85;16.35;;;;;;;15.38;80.22;100989.31;5022451;28;20060;-82
2021/09/06 03:48:53;;;;;;;22.77;16.38;;;;;;;15.38;80.41;100986.63;5018136;28;20057;-81
2021/09/06 03:51:20;;;;;;;25.73;16.17;;;;;;;15.39;80.32;100985.69;5021420;28;20057;-81
2021/09/06 03:53:46;;;;;;;23.77;16.13;;;;;;;15.40;80.46;100985.59;5014493;28;20052;-81
2021/09/06 03:56:13;;;;;;;24.35;16.05;;;;;;;15.41;80.17;100994.47;5018903;28;20050;-81
2021/09/06 03:58:40;;;;;;;21.08;14.90;;;;;;;15.38;80.15;100995.50;5012491;28;20050;-81
2021/09/06 04:01:07;;;;;;;26.52;16.45;;;;;;;15.35;80.42;100992.16;5030989;28;20064;-80
2021/09/06 04:03:34;;;;;;;25.38;17.05;;;;;;;15.35;80.18;100994.81;5036336;28;20061;-81
2021/09/06 04:06:01;;;;;;;23.85;15.98;;;;;;;15.34;80.77;101003.75;5037410;28;20030;-80
2021/09/06 04:08:28;;;;;;;27.10;17.00;;;;;;;15.30;80.75;100994.19;5020099;28;20105;-80
2021/09/06 04:10:56;;;;;;;24.02;16.52;;;;;;;15.30;80.10;100995.06;5036741;28;20061;-81
2021/09/06 04:13:24;;;;;;;25.83;17.02;;;;;;;15.31;80.90;100990.59;5035649;28;20112;-81
2021/09/06 04:15:51;;;;;;;23.25;16.50;;;;;;;15.31;80.79;100990.59;5029286;28;20113;-81
2021/09/06 04:18:18;;;;;;;23.75;15.45;;;;;;;15.34;80.49;100993.09;5028371;28;20113;-81
2021/09/06 04:20:44;;;;;;;24.27;16.95;;;;;;;15.34;80.16;100999.28;5036082;28;20065;-80
2021/09/06 04:23:14;;;;;;;22.38;16.38;;;;;;;15.35;80.38;101001.00;5036289;28;20050;-80
2021/09/06 04:25:41;;;;;;;26.05;18.00;;;;;;;15.37;79.94;101003.59;5024829;28;20482;-81
2021/09/06 04:28:07;;;;;;;22.58;15.70;;;;;;;15.36;79.83;100999.19;5016992;28;20056;-80
2021/09/06 04:30:34;;;;;;;25.90;17.38;;;;;;;15.34;79.93;100993.09;5018560;28;20050;-80
2021/09/06 04:33:03;;;;;;;24.20;16.65;;;;;;;15.34;79.77;101001.09;5019117;28;20485;-80
2021/09/06 04:35:30;;;;;;;24.98;16.88;;;;;;;15.32;80.08;101000.31;5022768;28;20050;-81
2021/09/06 04:37:56;;;;;;;25.30;17.00;;;;;;;15.31;80.02;101004.78;5023492;28;20137;-80
2021/09/06 04:40:25;;;;;;;26.42;17.77;;;;;;;15.31;80.01;101009.25;5022426;28;20062;-80
2021/09/06 04:42:53;;;;;;;24.33;16.83;;;;;;;15.28;80.10;101017.44;5028643;28;20136;-80
2021/09/06 04:45:20;;;;;;;28.80;17.45;;;;;;;15.26;79.99;101016.69;5028696;28;20113;-79
2021/09/06 04:47:47;;;;;;;24.23;17.05;;;;;;;15.24;80.36;101014.09;5023566;28;20050;-79
2021/09/06 04:50:14;;;;;;;23.77;16.70;;;;;;;15.25;80.07;101012.31;5013258;28;20109;-80
2021/09/06 04:52:42;;;;;;;24.45;16.52;;;;;;;15.28;80.29;101020.09;5016620;28;20068;-80
2021/09/06 04:55:10;;;;;;;25.17;17.25;;;;;;;15.28;80.09;101014.78;4999185;28;20049;-80
2021/09/06 04:57:37;;;;;;;25.38;17.33;;;;;;;15.26;80.07;101024.69;5013304;28;20149;-80
2021/09/06 05:00:05;;;;;;;24.38;17.42;;;;;;;15.28;80.21;101022.78;5018047;28;20056;-81
2021/09/06 05:02:31;;;;;;;27.45;18.13;;;;;;;15.31;80.04;101027.94;5025474;28;20081;-81
2021/09/06 05:04:58;;;;;;;27.90;18.27;;;;;;;15.33;80.09;101028.72;5014300;28;20054;-81
2021/09/06 05:07:25;;;;;;;25.73;18.20;;;;;;;15.34;79.93;101036.66;5020211;28;20086;-80
2021/09/06 05:09:51;;;;;;;26.38;17.75;;;;;;;15.34;80.01;101041.97;5023085;28;20049;-81
2021/09/06 05:12:18;;;;;;;28.58;19.08;;;;;;;15.33;79.96;101052.75;5012285;28;20076;-81
2021/09/06 05:14:45;;;;;;;26.08;17.45;;;;;;;15.33;79.96;101045.59;5016541;28;20475;-82
2021/09/06 05:17:12;;;;;;;28.65;18.80;;;;;;;15.30;80.39;101055.56;5016047;28;20567;-82
2021/09/06 05:19:39;;;;;;;29.42;18.83;;;;;;;15.31;80.50;101054.63;5015643;28;20084;-82
2021/09/06 05:22:07;;;;;;;24.80;18.00;;;;;;;15.31;80.56;101057.28;5016627;28;20054;-80
2021/09/06 05:24:34;;;;;;;27.95;19.33;;;;;;;15.36;80.42;101061.44;5007015;28;20114;-81
2021/09/06 05:27:01;;;;;;;26.85;18.45;;;;;;;15.38;80.32;101059.56;5019312;28;20477;-81
2021/09/06 05:29:27;;;;;;;26.10;18.27;;;;;;;15.42;80.63;101060.25;5019135;28;20566;-81
2021/09/06 05:31:54;;;;;;;27.85;19.13;;;;;;;15.45;80.21;101065.38;5022391;28;20053;-81
2021/09/06 05:34:21;;;;;;;29.35;18.50;;;;;;;15.50;80.49;101062.47;4996429;28;20495;-81
2021/09/06 05:36:48;;;;;;;27.13;18.88;;;;;;;15.53;80.33;101065.81;5019797;28;20046;-82
2021/09/06 05:39:14;;;;;;;30.58;18.58;;;;;;;15.59;79.96;101068.16;5021737;28;20049;-82
2021/09/06 05:41:41;;;;;;;41.22;19.60;;;;;;;15.63;79.65;101069.72;5015401;28;20050;-82
2021/09/06 05:44:08;;;;;;;28.63;18.88;;;;;;;15.66;79.95;101068.69;5017598;28;20089;-82
2021/09/06 05:46:35;;;;;;;30.20;18.77;;;;;;;15.70;79.50;101072.91;5027304;28;20053;-82
2021/09/06 05:49:02;;;;;;;29.48;19.27;;;;;;;15.73;79.54;101076.28;5017628;28;20049;-81
2021/09/06 05:51:29;;;;;;;29.35;20.40;;;;;;;15.75;79.48;101074.34;5016977;28;20046;-82
2021/09/06 05:53:56;;;;;;;32.05;20.35;;;;;;;15.78;79.11;101067.97;4999379;28;20038;-81
2021/09/06 05:56:23;;;;;;;27.88;19.63;;;;;;;15.83;78.98;101078.41;5031858;28;20050;-79
2021/09/06 05:58:49;;;;;;;28.05;18.77;;;;;;;15.86;78.93;101070.22;5035171;28;20081;-81
2021/09/06 06:01:16;;;;;;;29.50;19.92;;;;;;;15.93;78.32;101076.91;5018479;28;20048;-82
2021/09/06 06:03:43;;;;;;;28.73;19.08;;;;;;;15.96;77.89;101084.75;5012619;28;20057;-82
2021/09/06 06:06:12;;;;;;;29.02;20.08;;;;;;;15.99;77.89;101077.41;5004694;28;20058;-81
2021/09/06 06:08:39;;;;;;;26.50;18.98;;;;;;;16.02;77.68;101076.38;5017362;28;20360;-81
2021/09/06 06:11:06;;;;;;;29.38;20.17;;;;;;;16.07;77.31;101080.47;4999651;28;20042;-82
2021/09/06 06:13:32;;;;;;;27.85;19.73;;;;;;;16.14;77.25;101091.69;5016332;28;20050;-82
2021/09/06 06:16:01;;;;;;;30.02;18.95;;;;;;;16.19;76.93;101086.94;5011113;28;20046;-82
2021/09/06 06:18:31;;;;;;;28.05;19.35;;;;;;;16.24;76.62;101090.19;5000657;28;20544;-81
2021/09/06 06:21:02;;;;;;;27.73;18.48;;;;;;;16.32;76.11;101101.28;5033169;28;20045;-81
2021/09/06 06:23:30;;;;;;;26.02;18.88;;;;;;;16.38;76.61;101100.03;5025774;28;20105;-82
2021/09/06 06:25:56;;;;;;;27.75;20.27;;;;;;;16.43;75.37;101104.16;5038728;28;20050;-82
2021/09/06 06:28:23;;;;;;;26.75;18.77;;;;;;;16.45;75.21;101096.94;5038241;28;20061;-82
2021/09/06 06:30:50;;;;;;;26.13;18.98;;;;;;;16.53;74.92;101109.81;5027983;28;20140;-82
2021/09/06 06:33:19;;;;;;;27.50;18.98;;;;;;;16.62;74.81;101116.44;4997576;28;20061;-82
2021/09/06 06:35:46;;;;;;;28.45;19.63;;;;;;;16.69;74.41;101120.47;5012324;28;20046;-82
2021/09/06 06:38:12;;;;;;;27.63;18.67;;;;;;;16.77;74.46;101118.22;5019241;28;20061;-81
2021/09/06 06:40:39;;;;;;;28.00;18.88;;;;;;;16.93;74.38;101115.44;5012128;28;20093;-81
2021/09/06 06:43:06;;;;;;;29.60;20.35;;;;;;;17.16;73.22;101110.38;5030991;28;20101;-82
2021/09/06 06:45:32;;;;;;;29.88;20.42;;;;;;;17.41;72.41;101116.84;5028720;28;20185;-81
2021/09/06 06:47:59;;;;;;;28.10;19.73;;;;;;;17.71;70.79;101106.88;5036285;28;20056;-81
2021/09/06 06:50:27;;;;;;;29.40;19.75;;;;;;;18.00;69.39;101107.63;5030460;28;20085;-81
2021/09/06 06:52:54;;;;;;;31.52;20.30;;;;;;;18.21;67.99;101105.34;5030142;28;20050;-82
2021/09/06 06:55:21;;;;;;;26.77;18.75;;;;;;;18.40;66.90;101104.97;5009669;28;20115;-82
2021/09/06 06:57:48;;;;;;;28.98;18.83;;;;;;;18.65;66.46;101110.38;5012900;28;20046;-82
2021/09/06 07:00:15;;;;;;;28.33;19.52;;;;;;;18.78;65.63;101105.88;5021035;28;20050;-82
2021/09/06 07:02:42;;;;;;;31.48;18.17;;;;;;;18.95;66.44;101110.06;5006527;28;20069;-82
2021/09/06 07:05:10;;;;;;;28.92;19.38;;;;;;;19.19;64.33;101111.00;5018583;28;20042;-82
2021/09/06 07:07:38;;;;;;;28.73;18.88;;;;;;;19.36;64.22;101109.78;5019802;28;20186;-82
2021/09/06 07:10:09;;;;;;;26.38;18.92;;;;;;;19.40;63.67;101110.41;5024773;28;20133;-82
2021/09/06 07:12:36;;;;;;;27.77;18.73;;;;;;;19.47;63.32;101112.56;5018584;28;20081;-82
2021/09/06 07:15:04;;;;;;;29.42;21.05;;;;;;;19.65;63.37;101120.28;5025658;28;20049;-86
2021/09/06 07:17:32;;;;;;;26.73;18.65;;;;;;;19.82;62.13;101117.22;5016895;28;20050;-82
2021/09/06 07:19:59;;;;;;;24.48;17.80;;;;;;;19.94;60.76;101118.97;5016740;28;20046;-83
2021/09/06 07:22:26;;;;;;;26.77;18.88;;;;;;;19.83;60.33;101118.94;5023262;28;20052;-83
2021/09/06 07:24:55;;;;;;;23.73;17.63;;;;;;;19.73;60.56;101126.78;5014398;28;20052;-80
2021/09/06 07:27:22;;;;;;;26.90;18.80;;;;;;;19.84;60.14;101128.69;5019550;28;20403;-80
2021/09/06 07:29:49;;;;;;;25.95;18.30;;;;;;;19.78;59.76;101124.63;5016883;28;20045;-80
2021/09/06 07:32:15;;;;;;;24.88;17.45;;;;;;;19.75;60.21;101140.13;5019430;28;20060;-80
2021/09/06 07:34:43;;;;;;;28.02;18.48;;;;;;;19.64;60.93;101135.53;5010034;28;20105;-79
2021/09/06 07:37:09;;;;;;;26.30;19.30;;;;;;;19.61;60.74;101133.94;5033504;28;20050;-79
2021/09/06 07:39:38;;;;;;;24.75;17.23;;;;;;;19.72;61.43;101130.44;5027588;28;20038;-80
2021/09/06 07:42:05;;;;;;;26.00;17.38;;;;;;;19.93;60.48;101139.63;5025511;28;20042;-80
2021/09/06 07:44:32;;;;;;;26.58;18.23;;;;;;;20.00;60.79;101139.16;5019964;28;20147;-80
2021/09/06 07:46:59;;;;;;;25.33;18.08;;;;;;;20.05;60.29;101145.91;5021240;28;20054;-80
2021/09/06 07:49:27;;;;;;;24.75;17.85;;;;;;;20.03;59.26;101149.69;5020667;28;20137;-80
2021/09/06 07:51:53;;;;;;;23.77;17.73;;;;;;;20.00;60.15;101149.91;5020053;28;20046;-80
2021/09/06 07:54:24;;;;;;;22.73;17.08;;;;;;;20.15;61.84;101152.31;5014566;28;20054;-80
2021/09/06 07:56:53;;;;;;;24.08;18.10;;;;;;;20.28;59.74;101152.28;5009997;28;20083;-80
2021/09/06 07:59:20;;;;;;;25.95;18.08;;;;;;;20.17;59.95;101160.25;5003185;28;20134;-80
2021/09/06 08:01:48;;;;;;;25.60;17.63;;;;;;;20.09;59.76;101160.00;5020293;28;20065;-83
2021/09/06 08:04:15;;;;;;;25.40;18.08;;;;;;;20.10;59.39;101151.81;5018082;28;20060;-82
2021/09/06 08:06:44;;;;;;;27.10;17.75;;;;;;;20.13;60.23;101156.97;5027136;28;20136;-81
2021/09/06 08:09:12;;;;;;;23.60;17.85;;;;;;;20.27;60.31;101162.16;5028201;28;20101;-81
2021/09/06 08:11:40;;;;;;;25.05;18.00;;;;;;;20.34;59.75;101159.84;5036560;28;20110;-82
2021/09/06 08:14:07;;;;;;;28.23;17.30;;;;;;;20.42;60.55;101159.31;5030201;28;20046;-82
2021/09/06 08:16:34;;;;;;;26.25;17.85;;;;;;;20.52;59.88;101166.56;5022325;28;20041;-82
2021/09/06 08:19:01;;;;;;;25.55;17.65;;;;;;;20.71;60.21;101170.53;5010355;28;20045;-81
2021/09/06 08:21:27;;;;;;;22.90;16.83;;;;;;;20.87;59.08;101176.47;5028069;28;20084;-81
2021/09/06 08:23:54;;;;;;;23.33;16.67;;;;;;;20.88;57.34;101165.56;5025864;28;20054;-83
2021/09/06 08:26:26;;;;;;;22.27;15.90;;;;;;;20.93;58.21;101170.59;5027181;28;20592;-80
2021/09/06 08:28:54;;;;;;;26.67;17.23;;;;;;;20.95;58.58;101165.94;5031874;28;20069;-81
2021/09/06 08:31:21;;;;;;;22.75;16.67;;;;;;;21.08;57.61;101155.94;5032210;28;20058;-80
2021/09/06 08:33:48;;;;;;;23.98;16.13;;;;;;;21.11;55.90;101166.44;5035133;28;20057;-80
2021/09/06 08:36:15;;;;;;;22.52;16.92;;;;;;;21.02;56.62;101168.03;5034743;28;20057;-81
2021/09/06 08:38:42;;;;;;;21.08;15.10;;;;;;;21.02;57.09;101165.34;5039971;28;20109;-81
2021/09/06 08:41:11;;;;;;;21.77;15.95;;;;;;;21.07;57.82;101165.00;5034625;28;20089;-82
2021/09/06 08:43:39;;;;;;;21.33;15.85;;;;;;;21.20;57.81;101168.47;5033193;28;20183;-80
2021/09/06 08:46:05;;;;;;;23.23;15.93;;;;;;;21.35;57.46;101174.47;5034450;28;20109;-81
2021/09/06 08:48:32;;;;;;;22.95;15.48;;;;;;;21.34;56.22;101175.44;5034552;28;20037;-82
2021/09/06 08:51:00;;;;;;;22.45;16.00;;;;;;;21.33;55.82;101177.28;5033948;28;20080;-81
2021/09/06 08:53:28;;;;;;;21.75;15.55;;;;;;;21.30;56.39;101177.53;5030455;28;20056;-83
2021/09/06 08:55:56;;;;;;;22.55;15.90;;;;;;;21.24;56.81;101174.47;5036323;28;20030;-80
2021/09/06 08:58:44;;;;;;;18.52;15.15;;;;;;;21.25;57.50;101173.50;5021290;28;20045;-80
2021/09/06 09:01:13;;;;;;;21.83;15.68;;;;;;;21.24;56.50;101178.03;5034520;28;20030;-80
2021/09/06 09:03:40;;;;;;;19.83;15.27;;;;;;;21.24;56.89;101177.16;5013512;28;20058;-80
2021/09/06 09:06:07;;;;;;;20.95;14.93;;;;;;;21.30;57.59;101176.66;5026124;28;20423;-80
2021/09/06 09:08:34;;;;;;;19.52;15.07;;;;;;;21.34;57.89;101179.00;5029576;28;20187;-80
2021/09/06 09:11:04;;;;;;;21.77;15.13;;;;;;;21.41;57.36;101175.81;5025812;28;20054;-81
2021/09/06 09:13:33;;;;;;;20.38;15.18;;;;;;;21.47;56.82;101173.47;5005446;28;20050;-81
2021/09/06 09:16:01;;;;;;;18.02;14.02;;;;;;;21.53;57.19;101172.16;5027226;28;20060;-81
2021/09/06 09:18:33;;;;;;;19.45;13.90;;;;;;;21.56;57.38;101172.75;5020219;28;20049;-81
2021/09/06 09:21:07;;;;;;;19.67;14.85;;;;;;;21.68;56.99;101174.47;5022151;28;20058;-81
2021/09/06 09:23:42;;;;;;;24.45;14.60;;;;;;;21.62;56.78;101168.69;5020883;28;20567;-81
2021/09/06 09:26:09;;;;;;;21.27;15.07;;;;;;;21.66;57.42;101171.03;5029867;28;20046;-80
2021/09/06 09:28:43;;;;;;;;;;;;;;;21.75;56.94;101172.09;5026514;28;20065;-81
2021/09/06 09:31:16;;;;;;;20.88;15.25;;;;;;;21.84;57.25;101171.38;5021683;28;19921;-81
2021/09/06 09:33:53;;;;;;;18.63;13.77;;;;;;;21.96;56.57;101164.09;5003213;28;20038;-82
2021/09/06 09:36:36;;;;;;;20.55;15.02;;;;;;;22.06;56.13;101167.78;4994494;28;20052;-82
2021/09/06 09:39:06;;;;;;;17.50;14.27;;;;;;;22.17;56.20;101162.38;5002617;28;20052;-82
2021/09/06 09:41:34;;;;;;;18.38;14.40;;;;;;;22.28;56.14;101159.63;5020103;28;20058;-82
2021/09/06 09:44:20;;;;;;;16.40;13.57;;;;;;;22.40;55.49;101149.63;5021204;28;20113;-82
2021/09/06 09:47:04;;;;;;;20.48;13.75;;;;;;;22.49;55.16;101151.56;5021040;28;20050;-83
2021/09/06 09:49:33;;;;;;;16.85;13.32;;;;;;;22.57;54.92;101156.28;5028413;28;20080;-82
2021/09/06 09:52:00;;;;;;;18.98;14.02;;;;;;;22.66;54.55;101159.09;5025633;28;20046;-82
2021/09/06 09:54:27;;;;;;;18.00;13.77;;;;;;;22.72;54.37;101158.53;5024075;28;20065;-83
2021/09/06 09:56:55;;;;;;;15.63;12.75;;;;;;;22.82;54.51;101157.81;5025100;28;20049;-83
2021/09/06 09:59:22;;;;;;;18.40;13.60;;;;;;;22.92;54.25;101158.72;5030034;28;20056;-83
2021/09/06 10:01:54;;;;;;;18.48;12.77;;;;;;;23.02;54.10;101154.19;5025197;28;20760;-83
2021/09/06 10:04:26;;;;;;;17.80;12.88;;;;;;;23.17;54.32;101155.56;5031119;28;20093;-82
2021/09/06 10:06:54;;;;;;;18.08;13.10;;;;;;;23.28;54.14;101146.53;5027198;28;20037;-82
2021/09/06 10:09:22;;;;;;;19.02;14.02;;;;;;;23.35;53.82;101148.53;5028110;28;20113;-82
2021/09/06 10:11:49;;;;;;;17.83;12.93;;;;;;;23.50;53.71;101156.28;5036749;28;20130;-83
2021/09/06 10:14:21;;;;;;;19.67;13.18;;;;;;;23.62;53.42;101149.78;5034590;28;20081;-82
2021/09/06 10:17:08;;;;;;;17.17;13.13;;;;;;;23.70;53.03;101147.28;5037787;28;20045;-82
2021/09/06 10:19:39;;;;;;;14.95;12.25;;;;;;;23.79;53.01;101146.44;5036611;28;20109;-82
2021/09/06 10:22:06;;;;;;;17.20;12.07;;;;;;;23.92;52.84;101144.34;5035913;28;20053;-82
2021/09/06 10:24:33;;;;;;;16.30;12.75;;;;;;;24.04;51.63;101137.81;5027888;28;20064;-83
2021/09/06 10:27:06;;;;;;;18.27;13.10;;;;;;;24.08;50.57;101139.22;5020453;28;20049;-82
2021/09/06 10:29:32;;;;;;;17.73;13.40;;;;;;;24.17;50.76;101139.38;5020189;28;20045;-83
2021/09/06 10:32:02;;;;;;;16.60;12.30;;;;;;;24.22;50.59;101135.25;5017494;28;20482;-82
2021/09/06 10:34:29;;;;;;;15.73;13.13;;;;;;;24.29;50.57;101135.56;5017200;28;20050;-83
2021/09/06 10:36:56;;;;;;;17.00;12.35;;;;;;;24.43;50.80;101130.56;5020314;28;20046;-83
2021/09/06 10:39:23;;;;;;;15.32;11.95;;;;;;;24.57;51.04;101131.13;5017170;28;20165;-83
2021/09/06 10:41:51;;;;;;;14.65;11.75;;;;;;;24.69;50.82;101136.25;5021776;28;20108;-83
2021/09/06 10:44:18;;;;;;;15.93;11.63;;;;;;;24.82;50.67;101127.81;4996812;28;20066;-83
2021/09/06 10:46:53;;;;;;;16.98;12.68;;;;;;;24.89;49.98;101123.50;5022290;28;20084;-83
2021/09/06 10:49:24;;;;;;;14.63;12.13;;;;;;;24.89;48.99;101128.06;5015120;28;20058;-82
2021/09/06 10:51:54;;;;;;;16.50;12.18;;;;;;;24.97;48.81;101126.38;5015336;28;20057;-83
2021/09/06 10:54:21;;;;;;;;;;;;;;;;;;5002739;28;20052;-82
2021/09/06 10:56:49;;;;;;;15.25;11.25;;;;;;;25.12;47.54;101124.06;5010721;28;19909;-82
2021/09/06 10:59:22;;;;;;;14.25;11.77;;;;;;;25.06;48.06;101135.47;5033570;28;20053;-82
2021/09/06 11:01:53;;;;;;;16.33;11.73;;;;;;;25.06;48.28;101125.50;5028107;28;20464;-83
2021/09/06 11:04:23;;;;;;;16.02;11.98;;;;;;;25.13;48.70;101131.19;5026032;28;20140;-82
2021/09/06 11:07:11;;;;;;;13.05;10.38;;;;;;;25.18;47.23;101123.47;5024789;28;20442;-83
2021/09/06 11:09:37;;;;;;;14.30;10.65;;;;;;;25.22;47.11;101127.56;5030679;28;20476;-83
2021/09/06 11:12:09;;;;;;;17.30;11.80;;;;;;;25.30;46.92;101129.56;5015960;28;20045;-83
2021/09/06 11:14:44;;;;;;;13.18;10.10;;;;;;;25.38;46.51;101124.22;4998942;28;20049;-81